This is the latest recevied weather packets stored in our database for station/object SR1WXW. If no packets are shown the sender has not sent any weather packets the latest 10 day(s).
| Time | Temp. | Humidity | Pressure | Rain* | Wind** | Luminosity | Snow |
|---|---|---|---|---|---|---|---|
| 1777883886 | 21.67° C | 53% | 1006 hPa | 0 mm | - | - | - |
| 1777883585 | 21.67° C | 51% | 1005.9 hPa | 0 mm | - | - | - |
| 1777883286 | 22.78° C | 50% | 1006 hPa | 0 mm | - | - | - |
| 1777882986 | 23.33° C | 48% | 1005.9 hPa | 0 mm | - | - | - |
| 1777882685 | 24.44° C | 46% | 1005.6 hPa | 0 mm | - | - | - |
| 1777882386 | 25.56° C | 46% | 1005.6 hPa | 0 mm | - | - | - |
| 1777882085 | 26.11° C | 47% | 1005.6 hPa | 0 mm | - | - | - |
| 1777881786 | 25.56° C | 47% | 1005.5 hPa | 0 mm | - | - | - |
| 1777881486 | 25.56° C | 48% | 1005.5 hPa | 0 mm | - | - | - |
| 1777881186 | 25° C | 50% | 1005.5 hPa | 0 mm | - | - | - |
| 1777880886 | 24.44° C | 51% | 1005.5 hPa | 0 mm | - | - | - |
| 1777880586 | 23.89° C | 51% | 1005.7 hPa | 0 mm | - | - | - |
| 1777880286 | 23.33° C | 51% | 1005.8 hPa | 0 mm | - | - | - |
| 1777879986 | 22.78° C | 53% | 1005.7 hPa | 0 mm | - | - | - |
| 1777879686 | 22.22° C | 55% | 1005.7 hPa | 0 mm | - | - | - |
| 1777879386 | 21.67° C | 56% | 1005.6 hPa | 0 mm | - | - | - |
| 1777879086 | 21.11° C | 60% | 1005.6 hPa | 0 mm | - | - | - |
| 1777878786 | 19.44° C | 62% | 1005.6 hPa | 0 mm | - | - | - |
| 1777878486 | 18.89° C | 62% | 1005.7 hPa | 0 mm | - | - | - |
| 1777878186 | 18.89° C | 61% | 1005.7 hPa | 0 mm | - | - | - |
| 1777877886 | 18.89° C | 61% | 1005.6 hPa | 0 mm | - | - | - |
| 1777877586 | 18.89° C | 62% | 1005.7 hPa | 0 mm | - | - | - |
| 1777877286 | 18.33° C | 62% | 1005.6 hPa | 0 mm | - | - | - |
| 1777876986 | 18.33° C | 63% | 1005.7 hPa | 0 mm | - | - | - |
| 1777876686 | 17.78° C | 63% | 1005.6 hPa | 0 mm | - | - | - |
* Rain latest hour (hover to see other rain measurements)
** Current wind speed in m/s (hover to see current wind gust speed)